Time;durP1;ratioP1;P1;durP2;ratioP2;P2;SDS_P1;SDS_P2;PMS_P1;PMS_P2;Temp;Humidity;BMP_temperature;BMP_pressure;BME280_temperature;BME280_humidity;BME280_pressure;Samples;Min_cycle;Max_cycle;Signal;HPM_P1;HPM_P2
2022/01/05 00:01:20;;;;;;;2.25;0.40;;;4.80;99.90;;;3.64;100.00;96006.88;4973168;28;20094;-70
2022/01/05 00:03:48;;;;;;;1.23;0.45;;;4.70;99.90;;;3.55;100.00;96005.50;4972773;28;20341;-70
2022/01/05 00:06:16;;;;;;;1.83;0.50;;;4.70;99.90;;;3.52;100.00;95992.81;4973336;28;20490;-70
2022/01/05 00:08:43;;;;;;;1.85;0.82;;;4.70;99.90;;;3.60;100.00;95981.38;4968767;28;22857;-70
2022/01/05 00:11:11;;;;;;;4.85;0.50;;;4.70;99.90;;;3.64;100.00;95981.19;4972006;28;20050;-71
2022/01/05 00:13:38;;;;;;;2.58;0.60;;;4.80;99.90;;;3.68;100.00;95984.50;4965254;28;20085;-70
2022/01/05 00:16:06;;;;;;;3.17;0.65;;;4.80;99.90;;;3.70;100.00;95983.53;4975227;28;20088;-70
2022/01/05 00:18:34;;;;;;;2.42;0.60;;;4.80;99.90;;;3.75;100.00;95976.47;4969853;28;20090;-70
2022/01/05 00:21:04;;;;;;;1.70;0.63;;;4.80;99.90;;;3.67;100.00;95975.09;4970401;28;20054;-70
2022/01/05 00:23:32;;;;;;;1.58;0.60;;;4.80;99.90;;;3.68;100.00;95972.50;4968311;28;20098;-70
2022/01/05 00:26:03;;;;;;;3.03;0.70;;;4.80;99.90;;;3.69;100.00;95971.56;4986502;28;20038;-70
2022/01/05 00:28:34;;;;;;;4.57;0.63;;;4.90;99.90;;;3.78;100.00;95963.50;4976211;28;20495;-70
2022/01/05 00:31:02;;;;;;;5.88;0.80;;;4.80;99.90;;;3.81;100.00;95948.88;4970529;28;20043;-70
2022/01/05 00:33:31;;;;;;;6.70;0.95;;;4.90;99.90;;;3.76;100.00;95960.19;4971417;28;20235;-70
2022/01/05 00:36:01;;;;;;;5.28;1.02;;;4.90;99.90;;;3.81;100.00;95966.84;4968673;28;20051;-70
2022/01/05 00:38:28;;;;;;;6.93;1.33;;;4.90;99.90;;;3.81;100.00;95944.59;4976058;28;20061;-70
2022/01/05 00:40:56;;;;;;;5.43;0.95;;;4.90;99.90;;;3.88;100.00;95960.59;4974999;28;20499;-70
2022/01/05 00:43:23;;;;;;;3.67;1.00;;;5.00;99.90;;;3.92;100.00;95944.97;4975161;28;20125;-71
2022/01/05 00:45:51;;;;;;;8.40;1.40;;;5.10;99.90;;;3.93;100.00;95954.34;4974699;28;20457;-70
2022/01/05 00:48:19;;;;;;;4.50;1.70;;;5.00;99.90;;;3.90;100.00;95938.22;4976474;28;20054;-70
2022/01/05 00:50:46;;;;;;;6.45;1.20;;;5.10;99.90;;;3.90;100.00;95959.63;4980100;28;20130;-70
2022/01/05 00:53:14;;;;;;;6.63;1.13;;;5.10;99.90;;;4.00;100.00;95951.53;4977010;28;20054;-70
2022/01/05 00:55:41;;;;;;;5.78;1.15;;;5.10;99.90;;;3.95;100.00;95947.41;4974321;28;20062;-70
2022/01/05 00:58:13;;;;;;;5.50;1.83;;;5.10;99.90;;;4.03;100.00;95951.38;4973623;28;20065;-70
2022/01/05 01:00:41;;;;;;;9.60;1.50;;;5.20;99.90;;;4.05;100.00;95958.13;4975476;28;20051;-71
2022/01/05 01:03:08;;;;;;;3.88;1.08;;;5.20;99.90;;;4.02;100.00;95973.66;4973885;28;20047;-70
2022/01/05 01:05:38;;;;;;;4.75;1.17;;;5.10;99.90;;;4.03;100.00;95965.03;4978864;28;20046;-71
2022/01/05 01:08:10;;;;;;;4.68;1.42;;;5.20;99.90;;;4.05;100.00;95972.69;4978485;28;20050;-70
2022/01/05 01:10:40;;;;;;;4.50;1.13;;;5.20;99.90;;;3.97;100.00;95980.72;4972918;28;20065;-70
2022/01/05 01:13:08;;;;;;;4.95;1.30;;;5.30;99.90;;;4.05;100.00;95967.56;4975895;28;20050;-71
2022/01/05 01:15:36;;;;;;;3.92;1.08;;;5.30;99.90;;;4.09;100.00;95981.94;4975414;28;20121;-70
2022/01/05 01:18:03;;;;;;;3.80;1.17;;;5.30;99.90;;;4.12;100.00;95976.66;4976820;28;20444;-70
2022/01/05 01:20:31;;;;;;;7.63;1.55;;;5.30;99.90;;;4.09;100.00;95985.34;4973552;28;20069;-71
2022/01/05 01:23:04;;;;;;;3.83;1.10;;;5.30;99.90;;;4.12;100.00;95958.69;4978764;28;20051;-71
2022/01/05 01:25:32;;;;;;;4.55;1.60;;;5.30;99.90;;;4.16;100.00;95980.78;5003318;28;20078;-71
2022/01/05 01:27:59;;;;;;;4.05;1.50;;;5.30;99.90;;;4.19;100.00;95999.44;4983449;28;20082;-70
2022/01/05 01:30:30;;;;;;;7.22;1.70;;;5.30;99.90;;;4.26;100.00;95982.03;4973102;28;20671;-70
2022/01/05 01:33:01;;;;;;;4.57;1.27;;;5.30;99.90;;;4.17;100.00;95990.13;4975110;28;20427;-70
2022/01/05 01:35:29;;;;;;;3.85;1.60;;;5.40;99.90;;;4.26;100.00;95979.47;4977400;28;20057;-70
2022/01/05 01:37:57;;;;;;;6.07;1.58;;;5.40;99.90;;;4.24;100.00;95991.53;4971383;28;20053;-70
2022/01/05 01:40:29;;;;;;;6.95;2.72;;;5.40;99.90;;;4.30;100.00;95998.16;4973368;28;20050;-70
2022/01/05 01:42:56;;;;;;;7.95;2.05;;;5.40;99.90;;;4.26;100.00;96010.28;4972155;28;20496;-70
2022/01/05 01:45:27;;;;;;;5.47;2.08;;;5.40;99.90;;;4.30;100.00;96006.69;4979859;28;20047;-70
2022/01/05 01:47:55;;;;;;;10.02;2.78;;;5.50;99.90;;;4.30;100.00;96004.13;4970418;28;20050;-71
2022/01/05 01:50:22;;;;;;;6.28;2.45;;;5.50;99.90;;;4.33;100.00;96004.00;4979397;28;20054;-70
2022/01/05 01:52:50;;;;;;;6.13;1.80;;;5.50;99.90;;;4.37;100.00;96018.38;4972921;28;20583;-70
2022/01/05 01:55:19;;;;;;;5.80;2.03;;;5.50;99.90;;;4.29;100.00;96027.28;4974734;28;20043;-70
2022/01/05 01:57:46;;;;;;;6.00;2.03;;;5.50;99.90;;;4.27;100.00;96017.09;4973373;28;20142;-70
2022/01/05 02:00:15;;;;;;;7.03;1.60;;;5.50;99.90;;;4.28;100.00;96036.75;4972332;28;20050;-70
2022/01/05 02:02:44;;;;;;;3.35;1.65;;;5.50;99.90;;;4.26;100.00;96019.72;4976128;28;20058;-70
2022/01/05 02:05:13;;;;;;;5.30;1.80;;;5.50;99.90;;;4.23;100.00;96037.84;4972246;28;20577;-70
2022/01/05 02:07:42;;;;;;;3.08;1.67;;;5.50;99.90;;;4.26;100.00;96035.13;4974396;28;20054;-70
2022/01/05 02:10:10;;;;;;;3.45;1.45;;;5.50;99.90;;;4.28;100.00;96023.91;4972554;28;20526;-70
2022/01/05 02:12:37;;;;;;;2.97;1.35;;;5.50;99.90;;;4.26;100.00;96035.13;4976622;28;20799;-71
2022/01/05 02:15:08;;;;;;;4.10;1.40;;;5.50;99.90;;;4.34;100.00;96041.63;4972716;28;20069;-70
2022/01/05 02:20:41;;;;;;;4.07;1.60;;;5.50;99.90;;;4.35;100.00;96032.19;4964759;28;20051;-71
2022/01/05 02:23:08;;;;;;;3.22;1.10;;;5.50;99.90;;;4.22;100.00;96049.88;4976991;28;20054;-71
2022/01/05 02:25:36;;;;;;;4.68;1.05;;;5.40;99.90;;;4.23;100.00;96063.53;4982029;28;20078;-70
2022/01/05 02:28:06;;;;;;;3.03;1.10;;;5.40;99.90;;;4.17;100.00;96057.75;4973482;28;20057;-71
2022/01/05 02:30:39;;;;;;;2.40;0.85;;;5.40;99.90;;;4.14;100.00;96078.41;4977612;28;20145;-71
2022/01/05 02:33:07;;;;;;;1.83;0.90;;;5.40;99.90;;;4.15;100.00;96062.13;4971277;28;20051;-71
2022/01/05 02:35:35;;;;;;;3.20;0.70;;;5.30;99.90;;;4.03;100.00;96082.31;4979684;28;20046;-70
2022/01/05 02:38:05;;;;;;;3.28;0.80;;;5.30;99.90;;;4.06;100.00;96092.44;4972241;28;20137;-71
2022/01/05 02:40:32;;;;;;;1.80;0.70;;;5.20;99.90;;;4.04;100.00;96094.25;4978110;28;20072;-71
2022/01/05 02:43:00;;;;;;;0.57;0.40;;;5.20;99.90;;;3.76;100.00;96133.84;4970534;28;20055;-70
2022/01/05 02:45:27;;;;;;;0.75;0.20;;;4.90;99.90;;;3.43;100.00;96153.94;4971926;28;20101;-71
2022/01/05 02:47:56;;;;;;;0.20;0.20;;;4.70;99.90;;;3.13;100.00;96166.97;4973878;28;20467;-70
2022/01/05 02:50:23;;;;;;;1.40;0.30;;;4.40;99.90;;;2.86;100.00;96181.59;4973551;28;20042;-70
2022/01/05 02:52:50;;;;;;;1.30;0.30;;;4.10;99.90;;;2.60;100.00;96191.00;4973091;28;20130;-70
2022/01/05 02:55:18;;;;;;;0.20;0.20;;;3.80;99.90;;;2.41;100.00;96192.50;4974845;28;20062;-70
2022/01/05 02:57:45;;;;;;;0.40;0.20;;;3.70;99.90;;;2.30;100.00;96193.69;4976356;28;20049;-70
2022/01/05 03:00:15;;;;;;;0.10;0.10;;;3.50;99.90;;;2.28;100.00;96204.84;4971262;28;20133;-70
2022/01/05 03:02:43;;;;;;;0.20;0.20;;;3.40;99.90;;;2.24;100.00;96204.13;4976202;28;20510;-70
2022/01/05 03:05:11;;;;;;;0.75;0.30;;;3.40;99.90;;;2.25;100.00;96202.38;4976905;28;20043;-70
2022/01/05 03:07:39;;;;;;;1.10;0.30;;;3.30;99.90;;;2.24;100.00;96201.56;4974392;28;20146;-70
2022/01/05 03:10:10;;;;;;;1.77;0.20;;;3.30;99.90;;;2.14;100.00;96207.00;4973787;28;20047;-70
2022/01/05 03:12:40;;;;;;;0.85;0.30;;;3.30;99.90;;;2.16;100.00;96207.78;4973963;28;20061;-70
2022/01/05 03:15:09;;;;;;;0.32;0.20;;;3.30;99.90;;;2.17;100.00;96201.81;4975243;28;20042;-70
2022/01/05 03:17:36;;;;;;;1.75;0.22;;;3.20;99.90;;;2.14;100.00;96207.84;4973607;28;20042;-70
2022/01/05 03:20:05;;;;;;;0.52;0.30;;;3.20;99.90;;;2.05;100.00;96214.09;4992525;28;20078;-70
2022/01/05 03:22:33;;;;;;;0.10;0.10;;;3.20;99.90;;;1.99;100.00;96213.44;4970289;28;20085;-70
2022/01/05 03:25:00;;;;;;;0.30;0.20;;;3.20;99.90;;;2.03;100.00;96215.88;4979976;28;20550;-70
2022/01/05 03:27:28;;;;;;;0.40;0.20;;;3.10;99.90;;;1.99;100.00;96206.59;4971950;28;20069;-70
2022/01/05 03:30:07;;;;;;;0.70;0.10;;;3.20;99.90;;;2.00;100.00;96205.69;4977554;28;20063;-71
2022/01/05 03:32:46;;;;;;;0.20;0.20;;;3.20;99.90;;;1.97;100.00;96218.59;4956034;28;20368;-70
2022/01/05 03:35:16;;;;;;;0.65;0.28;;;3.20;99.90;;;2.08;100.00;96234.47;4975756;28;20518;-70
2022/01/05 03:37:44;;;;;;;1.33;0.30;;;3.20;99.90;;;2.07;100.00;96239.63;4971896;28;20526;-70
2022/01/05 03:40:12;;;;;;;1.00;0.30;;;3.20;99.90;;;2.08;100.00;96236.19;4975704;28;20130;-70
2022/01/05 03:42:42;;;;;;;0.52;0.20;;;3.20;99.90;;;2.04;100.00;96239.72;4978180;28;20153;-70
2022/01/05 03:45:10;;;;;;;0.80;0.20;;;3.20;99.90;;;2.08;100.00;96252.38;4974003;28;20050;-70
2022/01/05 03:47:41;;;;;;;0.30;0.20;;;3.20;99.90;;;2.11;100.00;96276.22;4981135;28;20069;-70
2022/01/05 03:50:14;;;;;;;0.20;0.20;;;3.20;99.90;;;2.02;100.00;96269.66;4971224;28;20499;-70
2022/01/05 03:52:45;;;;;;;0.20;0.20;;;3.20;99.90;;;2.02;100.00;96269.66;4978609;28;20065;-70
2022/01/05 03:55:12;;;;;;;0.20;0.20;;;3.20;99.90;;;2.02;100.00;96275.59;4974746;28;20049;-70
2022/01/05 03:57:40;;;;;;;0.75;0.30;;;3.20;99.90;;;2.07;100.00;96281.41;4970771;28;20074;-70
2022/01/05 04:00:10;;;;;;;0.68;0.30;;;3.20;99.90;;;2.10;100.00;96290.75;4982485;28;20687;-70
2022/01/05 04:02:37;;;;;;;1.10;0.28;;;3.20;99.90;;;2.09;100.00;96307.81;4976042;28;20050;-70
2022/01/05 04:05:05;;;;;;;0.30;0.20;;;3.30;99.90;;;2.22;100.00;96322.81;4974915;28;20139;-70
2022/01/05 04:07:33;;;;;;;2.20;0.30;;;3.30;99.90;;;2.15;100.00;96326.44;4969610;28;20077;-70
2022/01/05 04:10:00;;;;;;;0.77;0.30;;;3.40;99.90;;;1.93;100.00;96344.97;4975938;28;20043;-70
2022/01/05 04:12:27;;;;;;;2.13;0.30;;;3.40;99.90;;;2.14;100.00;96342.66;4971250;28;20047;-70
2022/01/05 04:14:54;;;;;;;1.42;0.25;;;3.40;99.90;;;2.12;100.00;96358.06;4975596;28;20157;-70
2022/01/05 04:17:22;;;;;;;1.27;0.25;;;3.40;99.90;;;2.06;100.00;96365.94;4974432;28;20172;-70
2022/01/05 04:19:49;;;;;;;1.77;0.30;;;3.40;99.90;;;2.15;100.00;96367.41;4977670;28;20077;-70
2022/01/05 04:22:17;;;;;;;1.40;0.20;;;3.40;99.90;;;2.18;100.00;96372.44;4982875;28;20482;-70
2022/01/05 04:24:44;;;;;;;0.65;0.20;;;3.40;99.90;;;2.11;100.00;96365.81;4979622;28;20105;-70
2022/01/05 04:27:12;;;;;;;0.20;0.20;;;3.40;99.90;;;2.15;100.00;96388.72;4996135;28;20059;-70
2022/01/05 04:29:39;;;;;;;0.88;0.25;;;3.30;99.90;;;2.09;100.00;96391.44;4973469;28;20050;-70
2022/01/05 04:32:08;;;;;;;1.42;0.40;;;3.30;99.90;;;1.98;100.00;96389.16;4977320;28;20085;-70
2022/01/05 04:34:36;;;;;;;1.42;0.30;;;3.30;99.90;;;1.80;100.00;96394.78;4975797;28;20448;-70
2022/01/05 04:37:24;;;;;;;0.55;0.20;;;3.20;99.90;;;1.90;100.00;96403.91;4981295;28;20046;-70
2022/01/05 04:39:55;;;;;;;1.85;0.47;;;3.10;99.90;;;1.78;100.00;96401.66;4974042;28;20046;-71
2022/01/05 04:42:27;;;;;;;2.22;0.52;;;3.10;99.90;;;1.75;100.00;96401.75;4976770;28;20058;-70
2022/01/05 04:44:55;;;;;;;1.48;0.40;;;3.00;99.90;;;1.65;100.00;96413.94;4974042;28;20050;-70
2022/01/05 04:47:23;;;;;;;1.42;0.43;;;2.90;99.90;;;1.52;100.00;96410.88;4979989;28;20046;-70
2022/01/05 04:49:50;;;;;;;1.45;0.50;;;2.90;99.90;;;1.09;100.00;96429.81;4975937;28;20043;-70
2022/01/05 04:52:18;;;;;;;2.38;0.50;;;2.80;99.90;;;1.19;100.00;96433.00;4978951;28;20154;-70
2022/01/05 04:54:49;;;;;;;2.85;0.70;;;2.70;99.90;;;1.09;100.00;96444.31;4976815;28;20585;-70
2022/01/05 04:57:17;;;;;;;3.30;0.70;;;2.50;99.90;;;1.08;100.00;96442.63;4973836;28;20487;-70
2022/01/05 04:59:48;;;;;;;4.45;0.68;;;2.50;99.90;;;1.04;100.00;96444.41;4977892;28;20415;-70
2022/01/05 05:02:16;;;;;;;2.10;0.60;;;2.40;99.90;;;1.07;100.00;96457.09;4972863;28;20057;-70
2022/01/05 05:04:50;;;;;;;4.80;0.90;;;2.40;99.90;;;1.20;100.00;96463.63;4981643;28;20049;-70
2022/01/05 05:07:18;;;;;;;4.00;0.70;;;2.40;99.90;;;1.23;100.00;96470.38;4986544;28;20170;-70
2022/01/05 05:09:48;;;;;;;6.63;0.80;;;2.50;99.90;;;1.20;100.00;96448.28;4977960;28;20039;-70
2022/01/05 05:12:15;;;;;;;4.60;0.68;;;2.40;99.90;;;1.07;100.00;96457.09;4972204;28;20078;-70
2022/01/05 05:14:43;;;;;;;5.13;0.80;;;2.40;99.90;;;1.13;100.00;96462.09;4993200;28;20273;-70
2022/01/05 05:17:09;;;;;;;3.80;0.80;;;2.40;99.90;;;1.15;100.00;96475.69;4981566;28;20057;-70
2022/01/05 05:19:37;;;;;;;5.07;0.80;;;2.40;99.90;;;0.86;100.00;96480.59;4981217;28;20097;-70
2022/01/05 05:22:04;;;;;;;6.40;0.70;;;2.30;99.90;;;0.79;100.00;96483.28;4974079;28;20138;-70
2022/01/05 05:24:31;;;;;;;3.58;0.90;;;2.30;99.90;;;0.70;100.00;96491.13;4974190;28;20425;-70
2022/01/05 05:27:00;;;;;;;5.93;1.00;;;2.30;99.90;;;0.68;100.00;96494.59;4976243;28;20114;-70
2022/01/05 05:29:27;;;;;;;2.20;0.85;;;2.20;99.90;;;0.78;100.00;96494.38;4981254;28;20051;-70
2022/01/05 05:31:54;;;;;;;8.85;1.17;;;2.20;99.90;;;0.66;100.00;96516.78;4974852;28;20043;-70
2022/01/05 05:34:22;;;;;;;4.82;0.95;;;2.10;99.90;;;0.67;100.00;96529.53;4973267;28;20058;-70
2022/01/05 05:36:49;;;;;;;6.60;1.02;;;2.00;99.90;;;0.61;100.00;96534.75;4975116;28;20130;-70
2022/01/05 05:39:17;;;;;;;7.82;1.40;;;1.90;99.90;;;0.67;100.00;96526.97;4978545;28;20050;-70
2022/01/05 05:41:44;;;;;;;10.02;1.35;;;2.00;99.90;;;0.67;100.00;96526.97;4976700;28;20074;-70
2022/01/05 05:44:12;;;;;;;7.53;1.02;;;1.90;99.90;;;0.65;100.00;96521.03;4977576;28;20101;-70
2022/01/05 05:46:39;;;;;;;5.00;1.23;;;2.00;99.90;;;0.73;100.00;96528.53;4974533;28;20407;-70
2022/01/05 05:49:06;;;;;;;7.15;1.10;;;2.00;99.90;;;0.86;100.00;96524.88;4977920;28;20054;-70
2022/01/05 05:51:34;;;;;;;10.63;0.98;;;2.10;99.90;;;0.63;100.00;96527.91;4971948;28;20051;-70
2022/01/05 05:54:03;;;;;;;5.50;1.20;;;2.10;99.90;;;0.68;100.00;96538.00;4979812;28;20429;-70
2022/01/05 05:56:31;;;;;;;6.97;1.20;;;2.20;99.90;;;0.68;100.00;96536.28;4992240;28;20051;-70
2022/01/05 05:58:58;;;;;;;11.65;1.30;;;2.20;99.90;;;0.62;100.00;96536.44;4972214;28;20050;-70
2022/01/05 06:01:27;;;;;;;7.30;1.10;;;2.10;99.90;;;0.52;100.00;96535.75;4969911;28;20055;-70
2022/01/05 06:03:56;;;;;;;7.22;1.25;;;2.10;99.90;;;0.47;100.00;96535.00;4973958;28;20050;-70
2022/01/05 06:06:26;;;;;;;5.80;1.15;;;2.00;99.90;;;0.37;100.00;96543.72;4976121;28;20042;-70
2022/01/05 06:08:55;;;;;;;6.65;1.27;;;1.80;99.90;;;0.20;100.00;96551.69;4973562;28;20046;-70
2022/01/05 06:11:22;;;;;;;12.80;1.30;;;1.80;99.90;;;0.13;100.00;96562.88;4987249;28;20061;-70
2022/01/05 06:13:52;;;;;;;10.98;1.55;;;1.60;99.90;;;0.08;100.00;96565.50;4971652;28;20047;-69
2022/01/05 06:16:19;;;;;;;16.60;2.63;;;1.60;99.90;;;-0.03;100.00;96568.22;4979946;28;20474;-70
2022/01/05 06:18:47;;;;;;;9.02;1.40;;;1.50;99.90;;;-0.03;100.00;96563.13;4971986;28;20050;-70
2022/01/05 06:21:14;;;;;;;11.32;1.50;;;1.40;99.90;;;-0.05;100.00;96569.13;4973782;28;20133;-70
2022/01/05 06:23:41;;;;;;;12.95;1.35;;;1.40;99.90;;;-0.17;100.00;96580.38;4973207;28;20043;-70
2022/01/05 06:26:09;;;;;;;8.95;1.23;;;1.40;99.90;;;0.03;100.00;96582.63;4970796;28;20038;-70
2022/01/05 06:28:37;;;;;;;6.82;1.00;;;1.40;99.90;;;-0.09;100.00;96582.78;4966050;28;20085;-70
2022/01/05 06:31:06;;;;;;;10.57;1.55;;;1.40;99.90;;;0.11;100.00;96590.13;4969240;28;20051;-70
2022/01/05 06:33:33;;;;;;;8.32;1.42;;;1.40;99.90;;;0.14;100.00;96595.19;4973053;28;20053;-70
2022/01/05 06:36:01;;;;;;;7.25;1.52;;;1.40;99.90;;;0.10;100.00;96596.09;4971699;28;20081;-70
2022/01/05 06:38:28;;;;;;;8.73;1.85;;;1.40;99.90;;;-0.03;100.00;96593.75;4977928;28;20093;-70
2022/01/05 06:40:55;;;;;;;10.77;1.75;;;1.40;99.90;;;0.06;100.00;96591.91;4973550;28;20047;-70
2022/01/05 06:43:22;;;;;;;11.38;1.50;;;1.40;99.90;;;0.10;100.00;96593.56;4977398;28;20570;-70
2022/01/05 06:45:50;;;;;;;8.73;1.08;;;1.40;99.90;;;0.09;100.00;96602.06;4976806;28;20515;-70
2022/01/05 06:48:17;;;;;;;9.15;1.77;;;1.50;99.90;;;-0.03;100.00;96598.00;4978388;28;20112;-70
2022/01/05 06:50:44;;;;;;;7.05;1.30;;;1.50;99.90;;;-0.06;100.00;96604.00;4977210;28;20077;-70
2022/01/05 06:53:12;;;;;;;8.07;1.33;;;1.40;99.90;;;-0.11;100.00;96610.91;4967962;28;20113;-70
2022/01/05 06:55:39;;;;;;;9.13;1.58;;;1.50;99.90;;;-0.12;100.00;96616.03;4967565;28;20062;-70
2022/01/05 06:58:07;;;;;;;8.85;1.40;;;1.40;99.90;;;0.03;100.00;96612.41;4969554;28;20054;-70
2022/01/05 07:00:35;;;;;;;10.70;1.30;;;1.50;99.90;;;-0.01;100.00;96621.78;4964782;28;20051;-70
2022/01/05 07:03:04;;;;;;;7.80;1.23;;;1.40;99.90;;;-0.05;100.00;96622.69;4971499;28;20542;-70
2022/01/05 07:05:32;;;;;;;8.27;1.60;;;1.40;99.90;;;-0.09;100.00;96618.50;4971133;28;20396;-70
2022/01/05 07:08:00;;;;;;;13.50;1.92;;;1.40;99.90;;;-0.15;100.00;96616.06;4969329;28;20423;-70
2022/01/05 07:10:28;;;;;;;6.75;1.35;;;1.40;99.90;;;-0.22;100.00;96630.63;4970855;28;20430;-70
2022/01/05 07:12:55;;;;;;;9.65;1.45;;;1.30;99.90;;;-0.28;100.00;96636.66;4971385;28;20042;-70
2022/01/05 07:15:25;;;;;;;8.02;1.45;;;1.30;99.90;;;-0.24;100.00;96643.41;4970542;28;20134;-70
2022/01/05 07:17:53;;;;;;;11.88;1.40;;;1.30;99.90;;;-0.30;100.00;96643.47;4973001;28;20113;-70
2022/01/05 07:20:21;;;;;;;11.55;2.13;;;1.30;99.90;;;-0.31;100.00;96638.41;4966025;28;20063;-70
2022/01/05 07:22:48;;;;;;;13.82;1.58;;;1.20;99.90;;;-0.38;100.00;96654.69;4972037;28;20078;-70
2022/01/05 07:25:16;;;;;;;10.57;1.65;;;1.30;99.90;;;-0.35;100.00;96645.25;4973373;28;20058;-70
2022/01/05 07:27:44;;;;;;;11.90;1.42;;;1.30;99.90;;;-0.34;100.00;96664.81;4972633;28;20057;-70
2022/01/05 07:30:12;;;;;;;8.95;1.75;;;1.30;99.90;;;-0.35;100.00;96673.31;4975819;28;20057;-70
2022/01/05 07:32:40;;;;;;;8.70;1.80;;;1.30;99.90;;;-0.27;100.00;96675.75;4967448;28;20138;-70
2022/01/05 07:35:08;;;;;;;10.38;1.90;;;1.30;99.90;;;-0.34;100.00;96682.66;4972524;28;20066;-70
2022/01/05 07:37:35;;;;;;;9.25;1.42;;;1.30;99.90;;;-0.34;100.00;96699.63;4968169;28;20280;-70
2022/01/05 07:40:03;;;;;;;13.45;2.08;;;1.30;99.90;;;-0.33;100.00;96686.88;4974566;28;20141;-70
2022/01/05 07:42:34;;;;;;;11.70;1.50;;;1.20;99.90;;;-0.30;100.00;96699.56;4969401;28;20058;-70
2022/01/05 07:45:07;;;;;;;11.52;1.92;;;1.20;99.90;;;-0.36;100.00;96696.28;4971863;28;20164;-70
2022/01/05 07:47:35;;;;;;;10.57;1.65;;;;;;;-0.25;100.00;96686.75;4966700;28;20066;-70
2022/01/05 07:50:06;;;;;;;9.77;1.40;;;;;;;-0.25;100.00;96687.63;4971581;28;20188;-70
2022/01/05 07:52:34;;;;;;;11.63;1.42;;;;;;;-0.38;100.00;96710.78;4969207;28;20054;-70
2022/01/05 07:55:02;;;;;;;10.95;1.90;;;0.90;99.90;;;-0.29;100.00;96705.53;4969947;28;20165;-70
2022/01/05 07:57:29;;;;;;;12.60;1.60;;;1.20;99.90;;;-0.30;100.00;96702.13;4978149;28;20081;-70
2022/01/05 07:59:56;;;;;;;4.95;1.40;;;1.10;99.90;;;-0.31;100.00;96708.09;4972395;28;21662;-70
2022/01/05 08:02:24;;;;;;;8.90;1.92;;;1.10;99.90;;;-0.42;100.00;96709.94;4975425;28;20439;-71
2022/01/05 08:04:51;;;;;;;14.60;2.15;;;1.00;99.90;;;-0.41;100.00;96704.00;4973975;28;20074;-70
2022/01/05 08:07:18;;;;;;;11.80;2.60;;;1.00;99.90;;;-0.40;100.00;96717.59;4977330;28;20513;-70
2022/01/05 08:09:45;;;;;;;9.27;2.15;;;1.00;99.90;;;-0.36;100.00;96724.34;4970994;28;20530;-70
2022/01/05 08:12:13;;;;;;;16.17;3.47;;;1.00;99.90;;;-0.43;100.00;96719.31;4979975;28;20047;-70
2022/01/05 08:14:40;;;;;;;18.42;4.93;;;1.00;99.90;;;-0.34;100.00;96736.22;4973487;28;20089;-70
2022/01/05 08:17:08;;;;;;;18.08;3.72;;;1.00;99.90;;;-0.39;100.00;96732.84;4974187;28;20047;-70
2022/01/05 08:19:35;;;;;;;21.55;4.78;;;1.00;99.90;;;-0.43;100.00;96739.72;4973513;28;20598;-70
2022/01/05 08:22:03;;;;;;;29.65;7.05;;;1.00;99.90;;;-0.41;100.00;96744.81;4970103;28;20050;-70
2022/01/05 08:24:30;;;;;;;28.10;4.60;;;1.00;99.90;;;-0.49;100.00;96764.44;4974241;28;20130;-71
2022/01/05 08:26:58;;;;;;;18.30;5.15;;;1.00;99.90;;;-0.43;100.00;96769.47;4972014;28;20054;-70
2022/01/05 08:29:25;;;;;;;46.75;11.93;;;1.00;99.90;;;-0.43;100.00;96754.16;4974949;28;20050;-70
2022/01/05 08:31:53;;;;;;;28.42;7.53;;;1.00;99.90;;;-0.39;100.00;96763.44;4968591;28;20066;-70
2022/01/05 08:34:20;;;;;;;15.73;3.25;;;1.00;99.90;;;-0.41;100.00;96760.09;4972581;28;20055;-70
2022/01/05 08:36:47;;;;;;;16.63;4.43;;;1.10;99.90;;;-0.42;100.00;96766.88;4968378;28;20503;-70
2022/01/05 08:39:15;;;;;;;13.23;2.33;;;1.10;99.90;;;-0.26;100.00;96761.59;4973433;28;20050;-70
2022/01/05 08:41:43;;;;;;;20.17;4.93;;;1.00;99.90;;;-0.38;100.00;96749.00;4974251;28;20058;-70
2022/01/05 08:44:11;;;;;;;30.02;4.32;;;1.10;99.90;;;-0.32;100.00;96766.75;4974378;28;20521;-70
2022/01/05 08:46:38;;;;;;;19.38;2.50;;;1.10;99.90;;;-0.32;100.00;96770.19;4990472;28;20411;-70
2022/01/05 08:49:05;;;;;;;10.20;1.95;;;1.10;99.90;;;-0.19;100.00;96785.31;4970473;28;20042;-70
2022/01/05 08:51:33;;;;;;;13.77;2.35;;;1.20;99.90;;;-0.19;100.00;96796.34;4975958;28;20045;-70
2022/01/05 08:54:01;;;;;;;16.48;2.90;;;1.10;99.90;;;-0.25;100.00;96796.41;4969292;28;20065;-70
2022/01/05 08:56:28;;;;;;;13.85;1.95;;;1.10;99.90;;;-0.19;100.00;96798.06;4979446;28;20399;-70
2022/01/05 08:58:56;;;;;;;16.48;2.10;;;1.20;99.90;;;-0.26;100.00;96802.41;4971917;28;20061;-70
2022/01/05 09:01:25;;;;;;;11.75;2.30;;;1.20;99.90;;;-0.04;100.00;96802.97;4972099;28;20047;-70
2022/01/05 09:03:53;;;;;;;10.63;2.03;;;1.30;99.90;;;-0.07;100.00;96803.88;4975469;28;20077;-70
2022/01/05 09:06:20;;;;;;;17.65;2.60;;;1.40;99.90;;;-0.18;100.00;96815.03;4972766;28;20042;-70
2022/01/05 09:08:48;;;;;;;13.40;1.90;;;1.30;99.90;;;-0.13;100.00;96820.94;4976332;28;20055;-70
2022/01/05 09:11:21;;;;;;;11.32;2.33;;;1.30;99.90;;;-0.07;100.00;96828.50;4971304;28;20133;-70
2022/01/05 09:13:49;;;;;;;14.93;2.30;;;1.40;99.90;;;-0.24;100.00;96824.47;4976760;28;20073;-70
2022/01/05 09:16:17;;;;;;;19.60;2.78;;;1.40;99.90;;;-0.33;100.00;96829.69;4972413;28;20074;-70
2022/01/05 09:18:44;;;;;;;16.95;2.70;;;1.40;99.90;;;-0.33;100.00;96842.41;4975995;28;20051;-70
2022/01/05 09:21:12;;;;;;;14.52;2.10;;;1.40;99.90;;;-0.15;100.00;96835.44;4968862;28;20101;-70
2022/01/05 09:23:39;;;;;;;13.02;3.10;;;1.40;99.90;;;0.05;100.00;96830.91;4976080;28;20042;-70
2022/01/05 09:26:07;;;;;;;15.23;3.13;;;1.50;99.90;;;-0.04;100.00;96843.78;4969509;28;20436;-70
2022/01/05 09:28:42;;;;;;;20.27;2.80;;;1.50;99.90;;;0.03;100.00;96832.66;4974306;28;20051;-70
2022/01/05 09:31:11;;;;;;;18.88;3.15;;;1.50;99.90;;;0.06;100.00;96850.47;4986724;28;20483;-70
2022/01/05 09:33:42;;;;;;;15.60;3.00;;;1.50;99.90;;;0.10;100.00;96849.56;4975304;28;20050;-70
2022/01/05 09:36:21;;;;;;;15.48;2.70;;;1.60;99.90;;;0.02;100.00;96850.50;4972539;28;20400;-70
2022/01/05 09:44:09;;;;;;;17.88;3.28;;;1.80;99.90;;;0.31;100.00;96865.47;4971370;28;20047;-70
2022/01/05 09:46:57;;;;;;;15.80;3.83;;;1.80;99.90;;;0.33;100.00;96871.38;4974117;28;20062;-70
2022/01/05 09:49:37;;;;;;;12.40;3.15;;;1.90;99.90;;;0.18;100.00;96874.97;4967649;28;20050;-70
2022/01/05 09:52:11;;;;;;;17.52;3.33;;;1.90;99.90;;;0.32;100.00;96869.69;4973059;28;20098;-70
2022/01/05 09:54:43;;;;;;;12.20;2.50;;;1.90;99.90;;;0.26;100.00;96887.66;4966901;28;20459;-70
2022/01/05 09:57:14;;;;;;;15.23;2.65;;;1.90;99.90;;;0.32;100.00;96869.69;4977015;28;20067;-70
2022/01/05 09:59:43;;;;;;;17.33;2.13;;;1.90;99.90;;;0.16;100.00;96867.34;4970663;28;20065;-70
2022/01/05 10:02:10;;;;;;;14.05;1.98;;;1.90;99.90;;;0.04;100.00;96869.19;4972988;28;20057;-71
2022/01/05 10:04:40;;;;;;;14.48;2.10;;;1.90;99.90;;;0.11;100.00;96873.38;4970246;28;20053;-70
2022/01/05 10:07:11;;;;;;;23.17;2.90;;;1.80;99.90;;;0.19;100.00;96881.78;4973302;28;20399;-70
2022/01/05 10:09:44;;;;;;;14.98;3.25;;;1.80;99.90;;;0.19;100.00;96892.81;4975439;28;20425;-70
2022/01/05 10:12:13;;;;;;;20.13;3.55;;;1.80;99.90;;;0.30;100.00;96872.28;4971948;28;20447;-70
2022/01/05 10:14:47;;;;;;;13.13;2.53;;;1.80;99.90;;;0.17;100.00;96875.84;4971063;28;20051;-70
2022/01/05 10:17:30;;;;;;;8.82;1.55;;;1.80;99.90;;;0.41;100.00;96901.06;4982574;28;20070;-70
2022/01/05 10:20:06;;;;;;;10.63;1.88;;;1.80;99.90;;;0.25;100.00;96904.69;4968974;28;20514;-70
2022/01/05 10:22:40;;;;;;;8.25;1.65;;;1.80;99.90;;;0.35;100.00;96897.75;4970554;28;20436;-70
2022/01/05 10:25:11;;;;;;;10.93;1.60;;;1.90;99.90;;;0.26;100.00;96908.91;4978472;28;20109;-70
2022/01/05 10:27:39;;;;;;;13.93;2.08;;;1.80;99.90;;;0.46;100.00;96915.44;4970445;28;20105;-70
2022/01/05 10:30:14;;;;;;;14.07;2.20;;;1.90;99.90;;;0.48;100.00;96890.75;4974765;28;20077;-70
2022/01/05 10:32:46;;;;;;;13.32;1.83;;;1.80;99.90;;;0.34;100.00;96912.22;4970591;28;20085;-70
2022/01/05 10:35:16;;;;;;;13.00;2.78;;;1.90;99.90;;;0.36;100.00;96914.72;4974062;28;20058;-70
2022/01/05 10:37:56;;;;;;;25.95;6.68;;;1.90;99.90;;;0.35;100.00;96903.69;4971113;28;20054;-70